KSCH

Schenectady County Airport

Schenectady, New York, USA
METAR KSCH 220147Z 02008KT 10SM CLR 17/06 A2993 RMK LAST
Observed Flight Rules
Jun-22 @ 01:47 UTC (4 hours ago) Visual Flight Rules
Wind Visibility Clouds
20° at 8 knots 10 miles
  • Clear skies
Temperatures Readings
Current 17°C / 63°F
Dewpoint 6°C / 43°F
Humidity 49%
Altimeter 29.93" Hg
Pressure 1014 hPa
Elevation 115
METAR KSCH 220147Z 02008KT 10SM CLR 17/06 A2993 RMK LAST
Observed Flight Rules
Jun-22 @ 01:47 UTC
(4 hours ago)
VFR
Wind Visibility
20° at 8 knots 10 miles
Clouds
  • Clear skies
Temperature Dewpoint
17°C / 63°F 6°C / 43°F
Humidity Altimeter Pressure
49% 29.93" Hg 1014 hPa